Palm Desert, CA (92211)

4:32 PM PST on December 04, 2016 (GMT -0800)
Palace Drive | | Change Station

Elev 144 ft 33.76 °N, 116.32 °W | Updated 5 minutes ago

Clear
Clear
67.1 °F
Feels Like 67.1 °F
N
14.3
Wind Variable Wind from NE
Gusts 21.1 mph

Today
High -- | Low -- °F
--% Chance of Precip.
Yesterday
High -- | Low -- °F
Precip. -- in
Pressure 29.98 in
Visibility 10.0 miles
Clouds Clear
Dew Point 31 °F
Humidity 26%
Rainfall 0.00 in
Snow Depth Not available.
6:35 AM 4:36 PM
Waxing Crescent, 26% visible
METAR KPSP 042353Z 10004KT 10SM CLR 22/M06 A2998 RMK AO2 SLP152 T02171061 10228 20183 56018
Pressure 29.98 in
Visibility 10.0 miles
Clouds Clear
Dew Point 31 °F
Humidity 26%
Rainfall 0.00 in
Snow Depth Not available.
6:35 AM 4:36 PM
Waxing Crescent, 26% visible
METAR KPSP 042353Z 10004KT 10SM CLR 22/M06 A2998 RMK AO2 SLP152 T02171061 10228 20183 56018

10-Day Weather Forecast

Almanac

Astronomy

Dec. 04, 2016 Rise Set
Actual Time
Civil Twilight
Nautical Twilight
Astronomical Twilight
Moon
Length of Visible Light
Length of Day
Tomorrow will be .
, % of the Moon is Illuminated

Today's Extremes

State Highs State Lows

Community

WunderPhotos

Upload Photos

1,955,725 photos uploaded!

WunderBlog® & News

Nearby

Air Quality

  Air Quality AQ Index Pollutant
Not available.

Snow Depth

Station Depth Elevation

Earthquake Activity

City Distance Mag. Time & Date
Minimum magnitude displayed is 2.5.

Coastal Water Temperatures

Place Temperature

Stations

Nearby Weather Stations

Station Location Temp. Windchill Dew Point Humidity Wind Precip. Elev Updated Type
                   

Watches & Warnings

There are currently no watches in effect.